Aérodrome :
LOGIN :

S'inscrire | Disclaimer

   EN    FR    IT 

 










Légende :    VFR   VFR Marginal   IFR   IFR Intensif   IFR Très Intensif
Visi : 
Plafond : 
>= 8 km
>= 3000ft
5 à 8 km
1000 à 3000 ft
1500m à 5 km
500 à 1000 ft
800 à 1500m
200 à 500 ft
< 800m
< 200 ft
Symboles :   Orages  Brouillard  Fortes neiges  Fortes précipitations  Vent > 20 kt
SIGMETs :   Divers  Orages  Givrage  Turbulence  Onde Orograph.  Cendres Volcan.






- Altitude de l'aérodrome : 1213 ft
- Code IATA : SCQ


LEST - Santiago de Compostela

DERNIER METAR :
  • 012130Z 02006KT 340V050 9000 FEW005 SCT010 BKN018 10/09 Q1014 TEMPO 3000 RA BR BKN005

METARs EXPIRÉS :
  • 012100Z 03007KT 9000 FEW005 BKN010 10/09 Q1014 TEMPO 3000 RA BR BKN005
  • 012030Z 04005KT 010V090 9000 FEW003 BKN012 10/09 Q1014 TEMPO 3000 RA BR BKN005
  • 012000Z VRB02KT 6000 FEW003 BKN012 10/10 Q1013 TEMPO 3000 RA BR BKN005
  • 011930Z 12003KT 9000 FEW003 BKN012 10/10 Q1013 TEMPO 3000 RA BR BKN005
  • 011900Z 08003KT 030V140 5000 0900S -RA BCFG SCT001 BKN005 11/10 Q1013 RERA TEMPO 3000 RA BR
  • 011859Z 09003KT 030V160 5000 0600S R17/P2000 R35/0600D -RA BCFG SCT001 BKN003 10/09 Q1013 RERA TEMPO 3000 RA BR
  • 011838Z 36004KT 5000 1200SE RA SCT001 BKN008 11/09 Q1012 TEMPO 3000 BR BKN005

TAF AMD TAF LEST
Valide du 01 à 18h jusqu'au 02 à 18h UTC


011836Z 0118/0218 01008KT 8000 SCT020 TX16/0215Z TN05/0206Z
PROB40
TEMPO 0118/0121 SHRA SCT020TCU
PROB40
TEMPO 0118/0207 3000 BR BKN005 BKN010
PROB30
TEMPO 0118/0207 1500 BCFG BKN002



MET'MAP, la Météo Aéronautique d'un coup d'oeil ! - Copyright ORBIFLY Décembre 2007 - Disclaimer

ORBIFLY MET'MAP TEAM :

Programmation & Développement : Alexandra Zaïnal
Sur une idée originale de : Baudouin d'Aumeries
Assistance à la programmation : Marc-Olivier Méhu
Soutien technique & logistique : Manuel Goepfert

Contact : metmap@orbifly.com




SOURCES & CREDITS :

   NOAA